Peristerion, Greece
Current Conditions -  °F | °C
As of 9:50 AM on Sunday 23 Nov 2014 (Local Time) from LGEL Reporting Station
Broken Clouds Broken Clouds  
Wind Chill: 11°   Ceiling: 3500
Heat Index: 11°   Visibility: 6mi
Dew Point:   Wind: 7mph
Humidity: 62%   Direction: 310°NW
Pressure: 30.27"   Gusts: NA
Location:  38.02°N, 23.7°E
Report Text: LGEL 230650Z 31006KT 9999 SCT030 BKN035 11/04 Q1025
Loading
Personal Weather Stations






























Interactive Weather Map New forecast layout! Learn more

10-Day Weather Forecast

Advertisements
Track Severe Weather on mobile